Time;durP1;ratioP1;P1;durP2;ratioP2;P2;SDS_P1;SDS_P2;PMS_P1;PMS_P2;Temp;Humidity;BMP_temperature;BMP_pressure;BME280_temperature;BME280_humidity;BME280_pressure;Samples;Min_cycle;Max_cycle;Signal;HPM_P1;HPM_P2
2023/03/16 00:00:31;;;;;;;6.40;2.15;;;3.60;99.90;;;;;;5072435;28;20500;-88
2023/03/16 00:03:20;;;;;;;6.95;2.50;;;3.60;99.90;;;;;;5060191;28;20092;-88
2023/03/16 00:06:07;;;;;;;7.85;2.20;;;3.60;99.90;;;;;;5060679;28;20045;-88
2023/03/16 00:08:57;;;;;;;8.13;2.65;;;3.60;99.90;;;;;;5089952;28;20036;-88
2023/03/16 00:11:43;;;;;;;7.95;2.22;;;3.60;99.90;;;;;;5082123;28;20048;-86
2023/03/16 00:14:34;;;;;;;7.50;2.30;;;3.60;99.90;;;;;;5056639;28;20121;-85
2023/03/16 00:17:20;;;;;;;6.32;2.03;;;3.60;99.90;;;;;;5054666;28;20059;-88
2023/03/16 00:20:07;;;;;;;8.40;2.78;;;3.60;99.90;;;;;;5072529;28;20462;-88
2023/03/16 00:22:53;;;;;;;7.57;2.45;;;3.60;99.90;;;;;;5072124;28;20051;-88
2023/03/16 00:25:40;;;;;;;9.40;2.20;;;3.60;99.90;;;;;;5072386;28;20418;-88
2023/03/16 00:28:33;;;;;;;7.90;2.40;;;3.60;99.90;;;;;;5055551;28;20105;-86
2023/03/16 00:31:19;;;;;;;5.88;2.20;;;3.60;99.90;;;;;;5040157;28;20409;-88
2023/03/16 00:34:05;;;;;;;10.65;3.13;;;3.70;99.90;;;;;;5058485;28;20118;-85
2023/03/16 00:36:54;;;;;;;5.82;2.40;;;3.70;99.90;;;;;;5077679;28;20052;-88
2023/03/16 00:39:41;;;;;;;5.80;2.20;;;3.70;99.90;;;;;;5083646;28;20084;-85
2023/03/16 00:42:29;;;;;;;7.82;2.47;;;3.70;99.90;;;;;;5071601;28;20139;-88
2023/03/16 00:45:15;;;;;;;4.72;2.50;;;3.70;99.90;;;;;;5057283;28;20044;-88
2023/03/16 00:48:01;;;;;;;8.27;2.63;;;3.70;99.90;;;;;;5071383;28;20140;-88
2023/03/16 00:50:47;;;;;;;7.25;2.08;;;3.80;99.90;;;;;;5059303;28;20075;-89
2023/03/16 00:53:34;;;;;;;7.53;3.15;;;3.80;99.90;;;;;;5079545;28;20052;-87
2023/03/16 00:56:20;;;;;;;6.70;2.20;;;3.80;99.90;;;;;;5043553;28;20056;-88
2023/03/16 00:59:07;;;;;;;6.53;2.08;;;3.80;99.90;;;;;;5067758;28;20044;-87
2023/03/16 01:01:54;;;;;;;8.80;2.78;;;3.90;99.90;;;;;;5043660;28;20052;-88
2023/03/16 01:04:40;;;;;;;6.72;2.65;;;3.90;99.90;;;;;;5057004;28;20535;-88
2023/03/16 01:07:26;;;;;;;5.32;2.22;;;3.90;99.90;;;;;;5060004;28;20044;-86
2023/03/16 01:10:13;;;;;;;7.00;2.00;;;3.90;99.90;;;;;;5054065;28;20079;-87
2023/03/16 01:12:59;;;;;;;5.18;2.47;;;3.90;99.90;;;;;;5043706;28;20044;-88
2023/03/16 01:15:45;;;;;;;4.88;1.83;;;3.90;99.90;;;;;;5060762;28;20112;-87
2023/03/16 01:18:34;;;;;;;5.20;2.22;;;4.00;99.90;;;;;;5042839;28;20511;-87
2023/03/16 01:21:21;;;;;;;7.85;2.80;;;4.00;99.90;;;;;;5042333;28;20139;-88
2023/03/16 01:24:07;;;;;;;10.38;2.60;;;4.00;99.90;;;;;;5071481;28;20405;-85
2023/03/16 01:26:53;;;;;;;4.68;2.17;;;4.00;99.90;;;;;;5070252;28;20049;-85
2023/03/16 01:29:42;;;;;;;6.55;2.50;;;4.00;99.90;;;;;;5070238;28;20049;-86
2023/03/16 01:32:28;;;;;;;6.20;2.20;;;4.10;99.90;;;;;;5073675;28;20093;-88
2023/03/16 01:35:14;;;;;;;7.63;2.35;;;4.00;99.90;;;;;;5059556;28;20047;-86
2023/03/16 01:38:01;;;;;;;7.00;2.20;;;4.00;99.90;;;;;;5068911;28;20056;-86
2023/03/16 01:40:52;;;;;;;7.47;2.83;;;4.00;99.90;;;;;;5066300;28;20052;-85
2023/03/16 01:43:42;;;;;;;6.53;2.30;;;4.00;99.90;;;;;;5064937;28;20051;-89
2023/03/16 01:46:29;;;;;;;8.45;3.00;;;4.00;99.90;;;;;;5043288;28;20106;-89
2023/03/16 01:49:35;;;;;;;6.05;2.50;;;4.00;99.90;;;;;;5059692;28;20060;-89
2023/03/16 01:52:32;;;;;;;6.95;2.40;;;4.00;99.90;;;;;;5070035;28;20052;-90
2023/03/16 01:55:18;;;;;;;6.30;2.17;;;4.00;99.90;;;;;;5075165;28;20059;-87
2023/03/16 01:58:04;;;;;;;6.10;2.38;;;4.00;99.90;;;;;;5077601;28;20040;-90
2023/03/16 02:00:50;;;;;;;8.18;3.13;;;4.00;99.90;;;;;;5039308;28;20106;-90
2023/03/16 02:03:37;;;;;;;8.68;3.00;;;4.00;99.90;;;;;;5052617;28;20135;-84
2023/03/16 02:06:23;;;;;;;7.32;3.05;;;4.00;99.90;;;;;;5043071;28;20135;-88
2023/03/16 02:09:10;;;;;;;7.13;3.03;;;4.00;99.90;;;;;;5056512;28;20080;-88
2023/03/16 02:11:57;;;;;;;6.88;2.72;;;4.00;99.90;;;;;;5070084;28;20056;-90
2023/03/16 02:14:44;;;;;;;5.80;2.58;;;4.00;99.90;;;;;;5070335;28;20060;-85
2023/03/16 02:17:32;;;;;;;7.30;2.85;;;4.00;99.90;;;;;;5069388;28;20041;-85
2023/03/16 02:20:35;;;;;;;9.07;3.92;;;4.00;99.90;;;;;;5038862;28;20052;-89
2023/03/16 02:23:23;;;;;;;7.30;3.50;;;4.00;99.90;;;;;;5053454;28;20064;-85
2023/03/16 02:27:03;;;;;;;10.40;3.03;;;4.00;99.90;;;;;;5066388;28;20080;-89
2023/03/16 02:29:49;;;;;;;7.40;3.00;;;4.00;99.90;;;;;;5030214;28;20102;-88
2023/03/16 02:32:36;;;;;;;11.48;4.45;;;4.00;99.90;;;;;;5074060;28;20116;-88
2023/03/16 02:35:22;;;;;;;7.45;2.72;;;4.00;99.90;;;;;;5055007;28;20052;-89
2023/03/16 02:38:09;;;;;;;5.68;2.50;;;4.00;99.90;;;;;;5039134;28;20048;-86
2023/03/16 02:40:59;;;;;;;6.85;2.83;;;4.00;99.90;;;;;;5071037;28;20420;-85
2023/03/16 02:44:06;;;;;;;7.70;3.13;;;4.00;99.90;;;;;;5057544;28;20138;-87
2023/03/16 02:46:58;;;;;;;6.70;3.22;;;4.00;99.90;;;;;;5077622;28;20052;-89
2023/03/16 02:49:45;;;;;;;7.95;3.15;;;4.10;99.90;;;;;;5070656;28;20051;-88
2023/03/16 02:52:35;;;;;;;9.07;2.90;;;4.10;99.90;;;;;;5052135;28;20048;-85
2023/03/16 02:55:21;;;;;;;7.20;3.00;;;4.10;99.90;;;;;;5074515;28;20052;-88
2023/03/16 02:58:07;;;;;;;5.78;2.60;;;4.10;99.90;;;;;;5072667;28;20041;-88
2023/03/16 03:00:53;;;;;;;7.22;2.53;;;4.10;99.90;;;;;;5079082;28;20099;-89
2023/03/16 03:03:39;;;;;;;10.88;3.22;;;4.10;99.90;;;;;;5072946;28;20091;-88
2023/03/16 03:06:26;;;;;;;7.45;3.05;;;4.10;99.90;;;;;;5069483;28;20056;-88
2023/03/16 03:09:12;;;;;;;7.72;3.13;;;4.10;99.90;;;;;;5070723;28;20052;-87
2023/03/16 03:11:58;;;;;;;7.22;3.45;;;4.10;99.90;;;;;;5058792;28;20059;-89
2023/03/16 03:14:44;;;;;;;12.45;3.97;;;4.10;99.90;;;;;;5073359;28;20106;-90
2023/03/16 03:17:31;;;;;;;8.05;3.92;;;4.10;99.90;;;;;;5055070;28;20048;-87
2023/03/16 03:20:17;;;;;;;8.95;3.60;;;4.10;99.90;;;;;;5068713;28;20440;-89
2023/03/16 03:23:04;;;;;;;7.15;3.38;;;4.10;99.90;;;;;;5070662;28;20041;-90
2023/03/16 03:25:50;;;;;;;12.43;4.15;;;4.10;99.90;;;;;;5076375;28;20067;-89
2023/03/16 03:28:36;;;;;;;6.72;3.00;;;4.10;99.90;;;;;;5076814;28;20063;-85
2023/03/16 03:31:22;;;;;;;8.13;3.03;;;4.10;99.90;;;;;;5075027;28;20065;-86
2023/03/16 03:34:09;;;;;;;8.88;3.25;;;4.10;99.90;;;;;;5076497;28;20385;-86
2023/03/16 03:36:55;;;;;;;10.45;4.00;;;4.10;99.90;;;;;;5077286;28;20111;-88
2023/03/16 03:39:41;;;;;;;8.38;3.92;;;4.10;99.90;;;;;;5075400;28;20048;-86
2023/03/16 03:42:27;;;;;;;6.43;3.28;;;4.10;99.90;;;;;;5074308;28;20458;-89
2023/03/16 03:45:14;;;;;;;9.27;3.90;;;4.10;99.90;;;;;;5074603;28;20046;-85
2023/03/16 03:48:00;;;;;;;9.20;4.20;;;4.20;99.90;;;;;;5084601;28;20108;-88
2023/03/16 03:50:46;;;;;;;10.27;4.00;;;4.10;99.90;;;;;;5067473;28;20056;-88
2023/03/16 03:53:32;;;;;;;7.88;4.25;;;4.20;99.90;;;;;;5071493;28;20064;-87
2023/03/16 03:56:18;;;;;;;7.05;3.90;;;4.20;99.90;;;;;;5071360;28;20053;-86
2023/03/16 03:59:04;;;;;;;10.20;4.35;;;4.20;99.90;;;;;;5082841;28;20045;-89
2023/03/16 04:01:52;;;;;;;10.18;3.85;;;4.20;99.90;;;;;;5085500;28;20051;-89
2023/03/16 04:04:40;;;;;;;8.30;4.07;;;4.20;99.90;;;;;;5059978;28;20135;-85
2023/03/16 04:07:26;;;;;;;11.18;4.80;;;4.20;99.90;;;;;;5055880;28;20056;-88
2023/03/16 04:10:12;;;;;;;21.63;5.93;;;4.20;99.90;;;;;;5076027;28;20052;-88
2023/03/16 04:12:58;;;;;;;9.05;4.18;;;4.20;99.90;;;;;;5083600;28;20087;-86
2023/03/16 04:15:45;;;;;;;11.25;4.25;;;4.20;99.90;;;;;;5075413;28;20044;-87
2023/03/16 04:18:37;;;;;;;10.50;4.68;;;4.20;99.90;;;;;;5071661;28;20135;-84
2023/03/16 04:21:23;;;;;;;9.32;4.60;;;4.20;99.90;;;;;;5071665;28;20131;-87
2023/03/16 04:24:13;;;;;;;11.25;5.15;;;4.20;99.90;;;;;;5071720;28;20102;-87
2023/03/16 04:27:01;;;;;;;16.20;5.43;;;4.20;99.90;;;;;;5071245;28;20056;-88
2023/03/16 04:29:47;;;;;;;10.20;4.95;;;4.30;99.90;;;;;;5069953;28;20063;-84
2023/03/16 04:32:33;;;;;;;11.93;4.35;;;4.30;99.90;;;;;;5072729;28;20076;-84
2023/03/16 04:35:19;;;;;;;11.00;5.15;;;4.30;99.90;;;;;;5081473;28;20501;-85
2023/03/16 04:38:06;;;;;;;15.48;5.53;;;4.30;99.90;;;;;;5087246;28;20118;-86
2023/03/16 04:40:52;;;;;;;13.82;6.03;;;4.30;99.90;;;;;;5081249;28;20147;-88
2023/03/16 04:43:38;;;;;;;10.85;5.38;;;4.30;99.90;;;;;;5074724;28;20049;-89
2023/03/16 04:46:25;;;;;;;11.15;5.20;;;4.30;99.90;;;;;;5070736;28;20056;-87
2023/03/16 04:49:11;;;;;;;10.25;5.63;;;4.30;99.90;;;;;;5070029;28;20049;-88
2023/03/16 04:51:57;;;;;;;9.98;5.30;;;4.30;99.90;;;;;;5069820;28;20045;-86
2023/03/16 04:54:43;;;;;;;10.18;5.65;;;4.30;99.90;;;;;;5068571;28;20420;-86
2023/03/16 04:57:29;;;;;;;13.07;5.70;;;4.30;99.90;;;;;;5069732;28;20044;-89
2023/03/16 05:00:19;;;;;;;9.88;5.60;;;4.30;99.90;;;;;;5072419;28;20080;-89
2023/03/16 05:03:06;;;;;;;11.25;5.18;;;4.30;99.90;;;;;;5069073;28;20053;-89
2023/03/16 05:05:52;;;;;;;12.80;6.40;;;4.40;99.90;;;;;;5076494;28;20036;-84
2023/03/16 05:08:40;;;;;;;13.95;5.60;;;4.40;99.90;;;;;;5085182;28;20044;-87
2023/03/16 05:11:26;;;;;;;11.73;5.75;;;4.40;99.90;;;;;;5071499;28;20148;-88
2023/03/16 05:14:12;;;;;;;10.18;5.55;;;4.40;99.90;;;;;;5071881;28;20048;-85
2023/03/16 05:16:58;;;;;;;12.07;6.38;;;4.40;99.90;;;;;;5072992;28;20080;-86
2023/03/16 05:19:44;;;;;;;11.95;5.55;;;4.40;99.90;;;;;;5072107;28;20404;-85
2023/03/16 05:22:30;;;;;;;9.95;6.07;;;4.40;99.90;;;;;;5074889;28;20386;-88
2023/03/16 05:25:18;;;;;;;20.63;7.82;;;4.40;99.90;;;;;;5071024;28;20772;-87
2023/03/16 05:28:05;;;;;;;13.88;6.70;;;4.40;99.90;;;;;;5072878;28;20186;-86
2023/03/16 05:30:51;;;;;;;15.00;6.60;;;4.30;99.90;;;;;;5055285;28;20146;-85
2023/03/16 05:33:37;;;;;;;14.57;6.95;;;4.30;99.90;;;;;;5075783;28;20048;-84
2023/03/16 05:36:23;;;;;;;14.73;7.47;;;4.30;99.90;;;;;;5084739;28;20083;-89
2023/03/16 05:39:10;;;;;;;15.90;6.75;;;4.30;99.90;;;;;;5063606;28;20139;-83
2023/03/16 05:41:56;;;;;;;11.48;6.97;;;4.30;99.90;;;;;;5055884;28;20079;-87
2023/03/16 05:44:43;;;;;;;11.10;6.65;;;4.30;99.90;;;;;;5070810;28;20056;-88
2023/03/16 05:47:29;;;;;;;15.73;6.45;;;4.30;99.90;;;;;;5071488;28;20048;-86
2023/03/16 05:50:16;;;;;;;17.77;7.07;;;4.30;99.90;;;;;;5052440;28;20511;-86
2023/03/16 05:53:03;;;;;;;15.48;6.72;;;4.20;99.90;;;;;;5054010;28;20092;-85
2023/03/16 05:55:52;;;;;;;13.95;7.43;;;4.20;99.90;;;;;;5070222;28;20080;-85
2023/03/16 05:58:38;;;;;;;13.13;6.75;;;4.20;99.90;;;;;;5053237;28;20052;-85
2023/03/16 06:01:24;;;;;;;10.80;5.80;;;4.20;99.90;;;;;;5054021;28;20060;-87
2023/03/16 06:04:10;;;;;;;12.02;6.38;;;4.10;99.90;;;;;;5076989;28;20045;-87
2023/03/16 06:06:56;;;;;;;14.73;6.72;;;4.20;99.90;;;;;;5078415;28;20055;-89
2023/03/16 06:09:42;;;;;;;15.73;6.50;;;4.10;99.90;;;;;;5055289;28;20056;-90
2023/03/16 06:12:28;;;;;;;14.57;7.05;;;4.10;99.90;;;;;;5076606;28;20048;-87
2023/03/16 06:15:14;;;;;;;11.52;6.55;;;4.10;99.90;;;;;;5073952;28;20045;-87
2023/03/16 06:18:01;;;;;;;13.52;6.35;;;4.10;99.90;;;;;;5056958;28;20107;-91
2023/03/16 06:20:47;;;;;;;16.80;7.25;;;4.10;99.90;;;;;;5057206;28;20394;-90
2023/03/16 06:23:33;;;;;;;12.27;7.65;;;4.10;99.90;;;;;;5060291;28;20870;-90
2023/03/16 06:26:20;;;;;;;13.65;6.05;;;4.10;99.90;;;;;;5080334;28;20044;-90
2023/03/16 06:29:07;;;;;;;13.30;6.85;;;4.10;99.90;;;;;;5081830;28;20116;-87
2023/03/16 06:31:53;;;;;;;15.40;6.50;;;4.10;99.90;;;;;;5064377;28;20049;-88
2023/03/16 06:34:40;;;;;;;10.90;5.82;;;4.10;99.90;;;;;;5051934;28;20056;-88
2023/03/16 06:37:27;;;;;;;13.43;7.07;;;4.10;99.90;;;;;;5070350;28;20053;-89
2023/03/16 06:40:13;;;;;;;14.98;6.05;;;4.10;99.90;;;;;;5072974;28;20041;-91
2023/03/16 06:43:00;;;;;;;13.93;6.43;;;4.20;99.90;;;;;;5068829;28;20565;-87
2023/03/16 06:45:47;;;;;;;10.60;5.75;;;4.20;99.90;;;;;;5073716;28;20504;-86
2023/03/16 06:48:33;;;;;;;13.68;6.50;;;4.20;99.90;;;;;;5055743;28;20079;-90
2023/03/16 06:51:19;;;;;;;8.82;5.85;;;4.20;99.90;;;;;;5070287;28;20047;-88
2023/03/16 06:54:05;;;;;;;13.00;6.07;;;4.30;99.90;;;;;;5070391;28;20447;-87
2023/03/16 06:56:51;;;;;;;11.23;5.75;;;4.30;99.90;;;;;;5069573;28;20048;-86
2023/03/16 06:59:38;;;;;;;9.82;5.07;;;4.40;99.90;;;;;;5052923;28;20549;-88
2023/03/16 07:02:24;;;;;;;13.30;5.32;;;4.40;99.90;;;;;;5069817;28;20040;-87
2023/03/16 07:05:13;;;;;;;13.13;5.93;;;4.50;99.90;;;;;;5069722;28;20040;-90
2023/03/16 07:08:00;;;;;;;16.75;6.88;;;4.50;99.90;;;;;;5080033;28;20102;-87
2023/03/16 07:10:46;;;;;;;13.57;5.60;;;4.50;99.90;;;;;;5073821;28;20114;-85
2023/03/16 07:13:34;;;;;;;11.93;5.85;;;4.50;99.90;;;;;;5069301;28;20053;-90
2023/03/16 07:16:20;;;;;;;11.18;5.75;;;4.60;99.90;;;;;;5044700;28;20064;-89
2023/03/16 07:19:06;;;;;;;11.70;5.65;;;4.60;99.90;;;;;;5067001;28;20083;-88
2023/03/16 07:21:53;;;;;;;12.65;6.25;;;4.60;99.90;;;;;;5076129;28;20060;-87
2023/03/16 07:24:39;;;;;;;10.85;6.25;;;4.60;99.90;;;;;;5058922;28;20040;-89
2023/03/16 07:27:25;;;;;;;13.18;5.78;;;4.60;99.90;;;;;;5072441;28;20044;-88
2023/03/16 07:30:13;;;;;;;11.57;6.28;;;4.70;99.90;;;;;;5042826;28;20056;-87
2023/03/16 07:33:00;;;;;;;12.98;5.95;;;4.70;99.90;;;;;;5075498;28;20556;-87
2023/03/16 07:35:46;;;;;;;13.90;5.75;;;4.70;99.90;;;;;;5064649;28;20056;-86
2023/03/16 07:38:32;;;;;;;12.50;5.75;;;4.70;99.90;;;;;;5060997;28;20076;-88
2023/03/16 07:41:19;;;;;;;11.75;5.68;;;4.70;99.90;;;;;;5083719;28;20055;-89
2023/03/16 07:44:05;;;;;;;8.70;4.85;;;4.80;99.90;;;;;;5073512;28;20064;-88
2023/03/16 07:46:51;;;;;;;10.20;5.28;;;4.90;99.90;;;;;;5078748;28;20048;-89
2023/03/16 07:49:37;;;;;;;10.38;5.85;;;4.90;99.90;;;;;;5077466;28;20534;-86
2023/03/16 07:52:24;;;;;;;11.80;5.65;;;5.00;99.90;;;;;;5057140;28;20393;-89
2023/03/16 07:55:10;;;;;;;9.73;4.80;;;5.00;99.90;;;;;;5075427;28;20106;-88
2023/03/16 07:57:56;;;;;;;12.05;6.18;;;5.10;99.90;;;;;;5061905;28;20052;-84
2023/03/16 08:00:42;;;;;;;10.50;5.68;;;5.10;99.90;;;;;;5049679;28;20044;-87
2023/03/16 08:03:30;;;;;;;10.68;5.68;;;5.10;99.90;;;;;;5058307;28;20048;-88
2023/03/16 08:06:17;;;;;;;12.30;5.43;;;5.20;99.90;;;;;;5074538;28;20057;-87
2023/03/16 08:09:03;;;;;;;12.13;5.05;;;5.10;99.90;;;;;;5078215;28;20127;-90
2023/03/16 08:11:49;;;;;;;12.07;5.75;;;5.10;99.90;;;;;;5080034;28;20515;-90
2023/03/16 08:14:36;;;;;;;12.32;5.35;;;5.10;99.90;;;;;;5072288;28;20057;-88
2023/03/16 08:17:22;;;;;;;14.13;6.18;;;5.20;99.90;;;;;;5042924;28;20396;-87
2023/03/16 08:20:11;;;;;;;12.15;5.30;;;5.20;99.90;;;;;;5074591;28;20075;-89
2023/03/16 08:22:57;;;;;;;15.73;5.90;;;5.20;99.90;;;;;;5076948;28;20555;-86
2023/03/16 08:25:44;;;;;;;13.45;5.15;;;5.20;99.90;;;;;;5056188;28;20064;-88
2023/03/16 08:28:31;;;;;;;15.23;6.55;;;5.20;99.90;;;;;;5058719;28;20393;-90
2023/03/16 08:31:18;;;;;;;10.18;4.80;;;5.20;99.90;;;;;;5074566;28;20044;-85
2023/03/16 08:34:05;;;;;;;12.13;5.28;;;5.20;99.90;;;;;;5058576;28;20101;-87
2023/03/16 08:36:51;;;;;;;9.23;4.75;;;5.20;99.90;;;;;;5078109;28;20583;-86
2023/03/16 08:39:40;;;;;;;16.17;5.25;;;5.30;99.90;;;;;;5070009;28;20079;-89
2023/03/16 08:42:30;;;;;;;10.13;5.80;;;5.30;99.90;;;;;;5073594;28;20052;-88
2023/03/16 08:45:17;;;;;;;11.13;5.03;;;5.30;99.90;;;;;;5058315;28;20048;-88
2023/03/16 08:48:04;;;;;;;10.18;5.32;;;5.30;99.90;;;;;;5077880;28;20068;-86
2023/03/16 08:50:52;;;;;;;11.15;4.97;;;5.30;99.90;;;;;;5085518;28;20049;-88
2023/03/16 08:53:38;;;;;;;8.60;5.15;;;5.30;99.90;;;;;;5074179;28;20098;-86
2023/03/16 08:56:25;;;;;;;9.38;4.45;;;5.30;99.90;;;;;;5070026;28;20523;-86
2023/03/16 08:59:11;;;;;;;12.02;5.13;;;5.40;99.90;;;;;;5072030;28;20048;-86
2023/03/16 09:01:57;;;;;;;10.95;5.75;;;5.30;99.90;;;;;;5077966;28;20123;-88
2023/03/16 09:04:44;;;;;;;12.68;5.90;;;5.30;99.90;;;;;;5075848;28;20496;-88
2023/03/16 09:07:34;;;;;;;11.18;5.78;;;5.30;99.90;;;;;;5077369;28;20052;-86
2023/03/16 09:10:21;;;;;;;10.85;5.95;;;5.30;99.90;;;;;;5076856;28;20127;-90
2023/03/16 09:13:08;;;;;;;11.32;5.63;;;5.30;99.90;;;;;;5092060;28;20134;-85
2023/03/16 09:15:55;;;;;;;12.23;5.00;;;5.30;99.90;;;;;;5096401;28;20097;-85
2023/03/16 09:18:42;;;;;;;12.73;5.47;;;5.40;99.90;;;;;;5078250;28;20051;-86
2023/03/16 09:21:28;;;;;;;10.38;4.72;;;5.30;99.90;;;;;;5106343;28;20108;-85
2023/03/16 09:24:14;;;;;;;11.27;5.30;;;5.40;99.90;;;;;;5075228;28;20056;-89
2023/03/16 09:27:00;;;;;;;12.88;4.88;;;5.30;99.90;;;;;;5097933;28;20056;-86
2023/03/16 09:29:47;;;;;;;11.55;4.78;;;5.40;99.90;;;;;;5077685;28;20062;-91
2023/03/16 09:32:36;;;;;;;13.10;5.38;;;5.30;99.90;;;;;;5060930;28;20056;-87
2023/03/16 09:35:22;;;;;;;11.40;4.85;;;5.40;99.90;;;;;;5093705;28;20055;-85
2023/03/16 09:38:08;;;;;;;10.15;5.55;;;5.50;99.90;;;;;;5094551;28;20495;-92
2023/03/16 09:41:33;;;;;;;11.50;4.85;;;5.60;99.90;;;;;;5093160;28;20055;-85
2023/03/16 09:44:49;;;;;;;17.33;7.05;;;5.70;99.90;;;;;;5091139;28;20385;-88
2023/03/16 09:47:37;;;;;;;10.48;5.20;;;5.70;99.90;;;;;;5103576;28;20052;-88
2023/03/16 09:50:28;;;;;;;15.45;5.90;;;5.80;99.90;;;;;;5091714;28;20500;-90
2023/03/16 09:53:28;;;;;;;10.73;5.38;;;5.80;99.90;;;;;;5090658;28;20074;-87
2023/03/16 09:56:29;;;;;;;9.77;5.38;;;5.90;99.90;;;;;;5092119;28;20381;-90
2023/03/16 09:59:17;;;;;;;10.20;5.70;;;5.90;99.90;;;;;;5090001;28;20048;-88
2023/03/16 10:02:31;;;;;;;11.50;5.28;;;5.90;99.90;;;;;;5065119;28;20060;-90
2023/03/16 10:05:21;;;;;;;9.25;5.05;;;6.00;99.90;;;;;;5079317;28;20040;-89
2023/03/16 10:08:19;;;;;;;13.60;5.47;;;6.00;99.90;;;;;;5076178;28;20049;-86
2023/03/16 10:11:25;;;;;;;9.45;4.65;;;6.10;99.90;;;;;;5072917;28;20102;-89
2023/03/16 10:14:29;;;;;;;11.13;4.32;;;6.10;99.90;;;;;;5069507;28;20497;-86
2023/03/16 10:17:58;;;;;;;9.95;4.35;;;6.20;99.90;;;;;;5070854;28;20055;-87
2023/03/16 10:21:22;;;;;;;8.10;4.57;;;6.10;99.90;;;;;;5080759;28;20048;-87
2023/03/16 10:24:47;;;;;;;10.18;5.30;;;6.10;99.90;;;;;;5070039;28;20063;-89
2023/03/16 10:27:37;;;;;;;10.45;4.80;;;6.20;99.90;;;;;;5081638;28;20045;-87
2023/03/16 10:30:27;;;;;;;15.63;5.15;;;6.20;99.90;;;;;;5081028;28;20045;-89
2023/03/16 10:33:25;;;;;;;9.25;5.15;;;6.20;99.90;;;;;;5077514;28;20116;-87
2023/03/16 10:36:23;;;;;;;;;;;6.10;99.90;;;;;;5089371;28;20054;-88
2023/03/16 10:39:15;;;;;;;10.57;4.60;;;6.10;99.90;;;;;;5084736;28;20015;-87
2023/03/16 10:42:01;;;;;;;11.82;4.93;;;6.10;99.90;;;;;;5080298;28;20375;-87
2023/03/16 10:44:47;;;;;;;13.38;6.22;;;6.10;99.90;;;;;;5081466;28;20063;-91
2023/03/16 10:47:36;;;;;;;9.38;4.72;;;6.10;99.90;;;;;;5072184;28;20060;-91
2023/03/16 10:50:24;;;;;;;10.38;4.50;;;6.10;99.90;;;;;;5073229;28;20044;-91
2023/03/16 10:53:28;;;;;;;15.05;5.68;;;6.10;99.90;;;;;;5074219;28;20052;-88
2023/03/16 10:56:24;;;;;;;9.40;4.97;;;6.10;99.90;;;;;;5077976;28;20048;-90
2023/03/16 10:59:27;;;;;;;15.25;6.47;;;6.00;99.90;;;;;;5089282;28;20055;-87
2023/03/16 11:02:22;;;;;;;9.25;4.32;;;6.10;99.90;;;;;;5076882;28;20060;-90
2023/03/16 11:05:17;;;;;;;10.20;4.40;;;6.10;99.90;;;;;;5077227;28;20056;-88
2023/03/16 11:08:24;;;;;;;18.73;5.32;;;6.10;99.90;;;;;;5075946;28;20053;-91
2023/03/16 11:11:19;;;;;;;8.93;4.47;;;6.10;99.90;;;;;;5062183;28;20049;-90
2023/03/16 11:14:14;;;;;;;13.15;4.57;;;6.20;99.90;;;;;;5081078;28;20051;-86
2023/03/16 11:17:24;;;;;;;8.25;4.60;;;6.30;99.90;;;;;;5082492;28;20056;-86
2023/03/16 11:20:22;;;;;;;11.35;4.55;;;6.40;99.90;;;;;;5075884;28;20045;-85
2023/03/16 11:23:17;;;;;;;7.95;4.75;;;6.40;99.90;;;;;;5076191;28;20083;-86
2023/03/16 11:26:12;;;;;;;11.45;4.43;;;6.50;99.90;;;;;;5058410;28;20106;-85
2023/03/16 11:29:12;;;;;;;7.93;4.18;;;6.60;99.90;;;;;;5074889;28;20056;-89
2023/03/16 11:32:17;;;;;;;10.45;3.45;;;6.70;99.90;;;;;;5075779;28;20420;-86
2023/03/16 11:35:43;;;;;;;8.63;3.80;;;6.70;99.90;;;;;;5087277;28;20052;-85
2023/03/16 11:39:04;;;;;;;8.18;3.55;;;6.80;99.90;;;;;;5076056;28;20044;-87
2023/03/16 11:42:21;;;;;;;8.70;3.92;;;6.80;99.90;;;;;;5074962;28;20075;-87
2023/03/16 11:45:14;;;;;;;10.43;4.60;;;6.90;99.90;;;;;;5072503;28;20087;-84
2023/03/16 11:48:14;;;;;;;11.00;4.03;;;6.90;99.90;;;;;;5074438;28;20044;-88
2023/03/16 11:51:06;;;;;;;8.20;4.65;;;6.90;99.90;;;;;;5064895;28;20044;-86
2023/03/16 11:54:05;;;;;;;9.45;4.20;;;7.00;99.90;;;;;;5081776;28;20048;-89
2023/03/16 11:57:00;;;;;;;7.70;4.20;;;7.00;99.90;;;;;;5072449;28;20520;-87
2023/03/16 12:00:25;;;;;;;10.20;3.80;;;7.10;99.90;;;;;;5072825;28;20060;-87
2023/03/16 12:03:46;;;;;;;15.00;4.43;;;7.20;99.90;;;;;;5035499;28;20048;-79
2023/03/16 12:06:59;;;;;;;14.57;4.57;;;7.40;99.90;;;;;;5076414;28;20052;-84
2023/03/16 12:10:01;;;;;;;9.05;4.40;;;7.50;99.90;;;;;;5059252;28;20076;-80
2023/03/16 12:13:14;;;;;;;10.05;4.25;;;7.60;99.90;;;;;;5072522;28;20408;-85
2023/03/16 12:16:18;;;;;;;10.95;3.75;;;7.70;99.90;;;;;;5076509;28;20563;-80
2023/03/16 12:19:16;;;;;;;8.40;4.07;;;7.90;99.90;;;;;;5080266;28;20040;-83
2023/03/16 12:22:18;;;;;;;9.88;4.28;;;8.10;99.90;;;;;;5072731;28;20045;-83
2023/03/16 12:25:16;;;;;;;11.18;4.25;;;8.20;99.90;;;;;;5070920;28;20501;-84
2023/03/16 12:28:09;;;;;;;8.10;3.60;;;8.40;99.90;;;;;;5059763;28;20463;-86
2023/03/16 12:31:10;;;;;;;10.05;3.65;;;8.50;99.90;;;;;;5071123;28;20517;-79
2023/03/16 12:34:15;;;;;;;11.82;3.90;;;8.50;99.90;;;;;;5072130;28;20049;-79
2023/03/16 12:37:06;;;;;;;8.68;3.17;;;8.50;99.90;;;;;;5073831;28;20056;-81
2023/03/16 12:39:55;;;;;;;7.40;3.50;;;8.50;99.90;;;;;;5064329;28;20056;-82
2023/03/16 12:42:47;;;;;;;9.18;4.10;;;8.50;99.90;;;;;;5079371;28;20625;-81
2023/03/16 12:45:45;;;;;;;8.25;3.17;;;8.80;99.90;;;;;;5071217;28;20408;-76
2023/03/16 12:48:38;;;;;;;13.18;3.60;;;9.10;99.90;;;;;;5052634;28;20451;-79
2023/03/16 12:51:35;;;;;;;6.38;3.35;;;9.30;99.90;;;;;;5065151;28;20569;-80
2023/03/16 12:54:24;;;;;;;10.05;4.28;;;9.30;99.90;;;;;;5071345;28;20048;-87
2023/03/16 12:57:16;;;;;;;9.50;3.83;;;9.20;99.90;;;;;;5074319;28;20049;-80
2023/03/16 13:00:07;;;;;;;8.63;3.90;;;9.00;99.90;;;;;;5080413;28;20098;-81
2023/03/16 13:02:56;;;;;;;9.25;3.80;;;8.90;99.90;;;;;;5069773;28;20575;-80
2023/03/16 13:05:52;;;;;;;8.13;4.20;;;8.80;99.90;;;;;;5070075;28;20045;-79
2023/03/16 13:08:54;;;;;;;7.43;3.33;;;8.80;99.90;;;;;;5064959;28;20075;-79
2023/03/16 13:11:49;;;;;;;8.18;3.72;;;8.70;99.90;;;;;;5058521;28;20078;-83
2023/03/16 13:14:43;;;;;;;9.43;4.25;;;8.70;99.90;;;;;;5069360;28;20466;-81
2023/03/16 13:17:32;;;;;;;7.97;3.70;;;8.80;99.90;;;;;;5078407;28;20068;-85
2023/03/16 13:20:48;;;;;;;6.72;3.33;;;8.80;99.90;;;;;;5071034;28;20554;-81
2023/03/16 13:23:58;;;;;;;6.57;3.38;;;8.90;99.90;;;;;;5070671;28;20049;-87
2023/03/16 13:26:51;;;;;;;7.03;3.28;;;9.00;99.90;;;;;;5071685;28;20059;-83
2023/03/16 13:29:37;;;;;;;8.15;3.25;;;9.00;99.90;;;;;;5070452;28;20099;-83
2023/03/16 13:32:28;;;;;;;9.40;3.15;;;9.00;99.90;;;;;;5073035;28;20432;-80
2023/03/16 13:35:17;;;;;;;6.75;3.42;;;9.10;99.90;;;;;;5079078;28;20084;-79
2023/03/16 13:38:05;;;;;;;7.05;3.53;;;9.10;99.90;;;;;;5081761;28;20083;-81
2023/03/16 13:40:55;;;;;;;9.15;3.20;;;9.10;99.90;;;;;;5071988;28;20060;-79
2023/03/16 13:43:42;;;;;;;7.05;3.22;;;9.20;99.90;;;;;;5071381;28;20050;-82
2023/03/16 13:46:29;;;;;;;10.10;3.75;;;9.30;99.90;;;;;;5070150;28;20492;-77
2023/03/16 13:49:17;;;;;;;9.75;3.22;;;9.30;99.90;;;;;;5069553;28;20117;-80
2023/03/16 13:52:04;;;;;;;9.00;3.17;;;9.40;99.90;;;;;;5052110;28;20166;-76
2023/03/16 13:54:51;;;;;;;7.45;3.22;;;9.40;99.90;;;;;;5067894;28;20536;-78
2023/03/16 13:57:40;;;;;;;9.30;3.45;;;9.30;99.90;;;;;;5064348;28;20044;-79
2023/03/16 14:00:31;;;;;;;11.48;3.63;;;9.30;99.90;;;;;;5061137;28;20088;-76
2023/03/16 14:03:20;;;;;;;8.18;3.65;;;9.30;99.90;;;;;;5065418;28;20134;-74
2023/03/16 14:06:19;;;;;;;7.18;2.70;;;9.20;99.90;;;;;;5073000;28;20056;-80
2023/03/16 14:09:16;;;;;;;8.70;3.90;;;9.20;99.90;;;;;;5068007;28;20052;-78
2023/03/16 14:12:02;;;;;;;6.18;3.17;;;9.20;99.90;;;;;;5063346;28;20067;-78
2023/03/16 14:14:54;;;;;;;7.20;3.03;;;9.20;99.90;;;;;;5058996;28;20443;-78
2023/03/16 14:17:42;;;;;;;6.90;3.38;;;9.30;99.90;;;;;;5039910;28;20157;-76
2023/03/16 14:20:29;;;;;;;6.60;3.13;;;9.30;99.90;;;;;;5059562;28;20171;-76
2023/03/16 14:23:38;;;;;;;6.72;3.45;;;9.30;99.90;;;;;;5059062;28;20060;-77
2023/03/16 14:26:25;;;;;;;7.65;3.25;;;9.40;99.90;;;;;;5061019;28;20053;-79
2023/03/16 14:29:20;;;;;;;7.95;3.13;;;9.40;99.90;;;;;;5068526;28;20048;-74
2023/03/16 14:32:20;;;;;;;6.45;3.33;;;9.50;99.90;;;;;;5068577;28;20056;-76
2023/03/16 14:35:14;;;;;;;7.50;3.67;;;9.50;99.90;;;;;;5070559;28;20064;-80
2023/03/16 14:38:21;;;;;;;8.80;2.90;;;9.50;99.90;;;;;;5073847;28;20101;-77
2023/03/16 14:41:08;;;;;;;5.88;3.17;;;9.50;99.90;;;;;;5072416;28;20050;-77
2023/03/16 14:43:59;;;;;;;7.00;3.22;;;9.50;99.90;;;;;;5053653;28;20044;-77
2023/03/16 14:46:46;;;;;;;5.47;3.10;;;9.60;99.90;;;;;;5067548;28;20056;-82
2023/03/16 14:49:38;;;;;;;6.65;2.58;;;9.60;99.90;;;;;;5068105;28;20416;-79
2023/03/16 14:52:32;;;;;;;7.40;3.60;;;9.70;99.90;;;;;;5069141;28;20087;-79
2023/03/16 14:55:19;;;;;;;5.88;2.92;;;9.70;99.90;;;;;;5069258;28;20524;-79